createdAt,value
2018-08-06T00:00:18.509Z,1016.65
2018-08-06T00:01:18.454Z,1016.62
2018-08-06T00:02:18.520Z,1016.62
2018-08-06T00:03:18.588Z,1016.61
2018-08-06T00:04:18.651Z,1016.61
2018-08-06T00:05:18.724Z,1016.59
2018-08-06T00:06:18.792Z,1016.56
2018-08-06T00:07:18.853Z,1016.55
2018-08-06T00:08:18.916Z,1016.54
2018-08-06T00:09:18.984Z,1016.52
2018-08-06T00:10:19.056Z,1016.50
2018-08-06T00:11:19.122Z,1016.49
2018-08-06T00:12:19.181Z,1016.49
2018-08-06T00:13:19.248Z,1016.47
2018-08-06T00:14:19.312Z,1016.44
2018-08-06T00:15:19.536Z,1016.44
2018-08-06T00:16:19.444Z,1016.41
2018-08-06T00:17:19.512Z,1016.40
2018-08-06T00:18:19.580Z,1016.38
2018-08-06T00:19:19.644Z,1016.37
2018-08-06T00:20:19.716Z,1016.32
2018-08-06T00:21:19.781Z,1016.31
2018-08-06T00:22:19.845Z,1016.31
2018-08-06T00:23:19.908Z,1016.35
2018-08-06T00:24:19.975Z,1016.33
2018-08-06T00:25:20.051Z,1016.34
2018-08-06T00:26:20.113Z,1016.29
2018-08-06T00:27:20.173Z,1016.37
2018-08-06T00:28:20.237Z,1016.33
2018-08-06T00:29:20.309Z,1016.36
2018-08-06T00:30:20.393Z,1016.29
2018-08-06T00:31:20.441Z,1016.30
2018-08-06T00:32:20.501Z,1016.33
2018-08-06T00:33:20.569Z,1016.26
2018-08-06T00:34:20.637Z,1016.25
2018-08-06T00:35:20.707Z,1016.26
2018-08-06T00:36:20.773Z,1016.21
2018-08-06T00:37:20.837Z,1016.23
2018-08-06T00:38:20.905Z,1016.20
2018-08-06T00:39:20.965Z,1016.16
2018-08-06T00:40:21.042Z,1016.12
2018-08-06T00:41:21.105Z,1016.17
2018-08-06T00:42:21.173Z,1016.13
2018-08-06T00:43:21.229Z,1016.14
2018-08-06T00:44:21.297Z,1016.11
2018-08-06T00:45:21.420Z,1016.09
2018-08-06T00:46:21.433Z,1016.13
2018-08-06T00:47:21.493Z,1016.11
2018-08-06T00:48:21.557Z,1016.11
2018-08-06T00:49:21.625Z,1016.10
2018-08-06T00:50:21.697Z,1016.09
2018-08-06T00:51:21.761Z,1016.10
2018-08-06T00:52:21.822Z,1016.09
2018-08-06T00:53:21.894Z,1016.13
2018-08-06T00:54:21.953Z,1016.11
2018-08-06T00:55:22.032Z,1016.08
2018-08-06T00:56:22.094Z,1016.11
2018-08-06T00:57:22.154Z,1016.09
2018-08-06T00:58:22.217Z,1016.09
2018-08-06T00:59:22.286Z,1016.06
2018-08-06T01:00:22.360Z,1016.05
2018-08-06T01:01:22.422Z,1016.02
2018-08-06T01:02:22.482Z,1016.00
2018-08-06T01:03:22.550Z,1016.03
2018-08-06T01:04:22.614Z,1016.01
2018-08-06T01:05:22.686Z,1015.99
2018-08-06T01:06:22.754Z,1015.94
2018-08-06T01:07:22.814Z,1015.98
2018-08-06T01:08:22.878Z,1015.96
2018-08-06T01:09:22.946Z,1015.93
2018-08-06T01:10:23.018Z,1015.91
2018-08-06T01:11:23.086Z,1015.93
2018-08-06T01:12:23.142Z,1015.94
2018-08-06T01:13:23.210Z,1015.92
2018-08-06T01:14:23.274Z,1015.96
2018-08-06T01:15:23.346Z,1015.95
2018-08-06T01:16:23.414Z,1015.96
2018-08-06T01:17:23.470Z,1015.96
2018-08-06T01:18:23.538Z,1015.97
2018-08-06T01:19:23.605Z,1015.96
2018-08-06T01:20:23.674Z,1015.95
2018-08-06T01:21:23.746Z,1015.92
2018-08-06T01:22:23.802Z,1015.89
2018-08-06T01:23:23.866Z,1015.86
2018-08-06T01:24:23.935Z,1015.85
2018-08-06T01:25:24.007Z,1015.82
2018-08-06T01:26:24.070Z,1015.85
2018-08-06T01:27:24.131Z,1015.84
2018-08-06T01:28:24.194Z,1015.83
2018-08-06T01:29:24.268Z,1015.82
2018-08-06T01:30:24.328Z,1015.80
2018-08-06T01:31:24.547Z,1015.85
2018-08-06T01:32:24.459Z,1015.81
2018-08-06T01:33:24.527Z,1015.82
2018-08-06T01:34:24.591Z,1015.79
2018-08-06T01:35:24.655Z,1015.77
2018-08-06T01:36:24.731Z,1015.80
2018-08-06T01:37:24.795Z,1015.79
2018-08-06T01:38:24.855Z,1015.75
2018-08-06T01:39:24.930Z,1015.75
2018-08-06T01:40:24.987Z,1015.73
2018-08-06T01:41:25.060Z,1015.75
2018-08-06T01:42:25.124Z,1015.72
2018-08-06T01:43:25.188Z,1015.69
2018-08-06T01:44:25.247Z,1015.72
2018-08-06T01:45:25.316Z,1015.70
2018-08-06T01:46:25.388Z,1015.72
2018-08-06T01:47:25.459Z,1015.69
2018-08-06T01:48:25.511Z,1015.71
2018-08-06T01:49:25.580Z,1015.68
2018-08-06T01:50:25.644Z,1015.68
2018-08-06T01:51:25.716Z,1015.71
2018-08-06T01:52:25.780Z,1015.68
2018-08-06T01:53:25.845Z,1015.69
2018-08-06T01:54:25.909Z,1015.69
2018-08-06T01:55:25.979Z,1015.68
2018-08-06T01:56:26.044Z,1015.69
2018-08-06T01:57:26.116Z,1015.68
2018-08-06T01:58:26.168Z,1015.67
2018-08-06T01:59:26.237Z,1015.70
2018-08-06T02:00:26.299Z,1015.69
2018-08-06T02:01:26.472Z,1015.66
2018-08-06T02:02:26.435Z,1015.65
2018-08-06T02:03:26.496Z,1015.63
2018-08-06T02:04:26.567Z,1015.66
2018-08-06T02:05:26.628Z,1015.63
2018-08-06T02:06:26.700Z,1015.63
2018-08-06T02:07:26.768Z,1015.65
2018-08-06T02:08:26.824Z,1015.62
2018-08-06T02:09:26.892Z,1015.59
2018-08-06T02:10:26.956Z,1015.58
2018-08-06T02:11:27.029Z,1015.61
2018-08-06T02:12:27.096Z,1015.58
2018-08-06T02:13:27.152Z,1015.58
2018-08-06T02:14:27.220Z,1015.55
2018-08-06T02:15:27.284Z,1015.53
2018-08-06T02:16:27.360Z,1015.47
2018-08-06T02:17:27.424Z,1015.50
2018-08-06T02:18:27.484Z,1015.48
2018-08-06T02:19:27.557Z,1015.51
2018-08-06T02:20:27.617Z,1015.52
2018-08-06T02:21:27.708Z,1015.51
2018-08-06T02:22:27.753Z,1015.51
2018-08-06T02:23:27.804Z,1015.50
2018-08-06T02:24:27.876Z,1015.49
2018-08-06T02:25:27.949Z,1015.44
2018-08-06T02:26:28.017Z,1015.42
2018-08-06T02:27:28.081Z,1015.44
2018-08-06T02:28:28.137Z,1015.42
2018-08-06T02:29:28.201Z,1015.42
2018-08-06T02:30:28.270Z,1015.42
2018-08-06T02:31:28.341Z,1015.39
2018-08-06T02:32:28.405Z,1015.41
2018-08-06T02:33:28.465Z,1015.41
2018-08-06T02:34:28.533Z,1015.38
2018-08-06T02:35:28.597Z,1015.35
2018-08-06T02:36:28.670Z,1015.31
2018-08-06T02:37:28.735Z,1015.35
2018-08-06T02:38:28.793Z,1015.36
2018-08-06T02:39:28.858Z,1015.33
2018-08-06T02:40:28.934Z,1015.31
2018-08-06T02:41:28.997Z,1015.33
2018-08-06T02:42:29.061Z,1015.33
2018-08-06T02:43:29.121Z,1015.34
2018-08-06T02:44:29.185Z,1015.32
2018-08-06T02:45:29.253Z,1015.30
2018-08-06T02:46:29.337Z,1015.30
2018-08-06T02:47:29.381Z,1015.28
2018-08-06T02:48:29.449Z,1015.28
2018-08-06T02:49:29.513Z,1015.25
2018-08-06T02:50:29.581Z,1015.26
2018-08-06T02:51:29.649Z,1015.23
2018-08-06T02:52:29.721Z,1015.22
2018-08-06T02:53:29.777Z,1015.19
2018-08-06T02:54:29.845Z,1015.22
2018-08-06T02:55:29.906Z,1015.21
2018-08-06T02:56:29.978Z,1015.19
2018-08-06T02:57:30.058Z,1015.17
2018-08-06T02:58:30.110Z,1015.19
2018-08-06T02:59:30.172Z,1015.19
2018-08-06T03:00:30.234Z,1015.17
2018-08-06T03:01:30.306Z,1015.16
2018-08-06T03:02:30.482Z,1015.14
2018-08-06T03:03:30.430Z,1015.12
2018-08-06T03:04:30.498Z,1015.10
2018-08-06T03:05:30.566Z,1015.10
2018-08-06T03:06:30.626Z,1015.09
2018-08-06T03:07:30.698Z,1015.14
2018-08-06T03:08:30.769Z,1015.13
2018-08-06T03:09:30.826Z,1015.10
2018-08-06T03:10:30.891Z,1015.05
2018-08-06T03:11:30.954Z,1015.09
2018-08-06T03:12:31.029Z,1015.05
2018-08-06T03:13:31.091Z,1015.05
2018-08-06T03:14:31.151Z,1015.02
2018-08-06T03:15:31.214Z,1015.03
2018-08-06T03:16:31.283Z,1015.00
2018-08-06T03:17:31.371Z,1015.00
2018-08-06T03:18:31.422Z,1015.01
2018-08-06T03:19:31.479Z,1015.03
2018-08-06T03:20:31.543Z,1015.00
2018-08-06T03:21:31.611Z,1014.98
2018-08-06T03:22:31.682Z,1014.98
2018-08-06T03:23:31.800Z,1014.95
2018-08-06T03:24:31.807Z,1014.95
2018-08-06T03:25:31.871Z,1014.96
2018-08-06T03:26:31.935Z,1014.99
2018-08-06T03:27:32.007Z,1014.99
2018-08-06T03:28:32.075Z,1015.02
2018-08-06T03:29:32.181Z,1015.00
2018-08-06T03:30:32.200Z,1014.98
2018-08-06T03:31:32.263Z,1014.97
2018-08-06T03:32:32.443Z,1014.98
2018-08-06T03:33:32.395Z,1014.95
2018-08-06T03:34:32.459Z,1014.94
2018-08-06T03:35:32.523Z,1014.94
2018-08-06T03:36:32.595Z,1014.91
2018-08-06T03:37:32.663Z,1014.91
2018-08-06T03:38:32.731Z,1014.88
2018-08-06T03:39:32.787Z,1014.95
2018-08-06T03:40:32.862Z,1014.93
2018-08-06T03:41:32.916Z,1014.94
2018-08-06T03:42:32.992Z,1014.92
2018-08-06T03:43:33.056Z,1014.88
2018-08-06T03:44:33.116Z,1014.88
2018-08-06T03:45:33.184Z,1014.85
2018-08-06T03:46:33.247Z,1014.82
2018-08-06T03:47:33.308Z,1014.80
2018-08-06T03:48:33.396Z,1014.79
2018-08-06T03:49:33.444Z,1014.83
2018-08-06T03:50:33.512Z,1014.83
2018-08-06T03:51:33.575Z,1014.86
2018-08-06T03:52:33.638Z,1014.82
2018-08-06T03:53:33.708Z,1014.87
2018-08-06T03:54:33.780Z,1014.85
2018-08-06T03:55:33.832Z,1014.87
2018-08-06T03:56:33.934Z,1014.83
2018-08-06T03:57:33.966Z,1014.86
2018-08-06T03:58:34.036Z,1014.86
2018-08-06T03:59:34.104Z,1014.87
2018-08-06T04:00:34.160Z,1014.87
2018-08-06T04:01:34.224Z,1014.82
2018-08-06T04:02:34.292Z,1014.80
2018-08-06T04:03:34.372Z,1014.77
2018-08-06T04:04:34.420Z,1014.77
2018-08-06T04:05:34.488Z,1014.79
2018-08-06T04:06:34.552Z,1014.77
2018-08-06T04:07:34.620Z,1014.76
2018-08-06T04:08:34.688Z,1014.74
2018-08-06T04:09:34.752Z,1014.76
2018-08-06T04:10:34.812Z,1014.73
2018-08-06T04:11:34.876Z,1014.78
2018-08-06T04:12:34.946Z,1014.72
2018-08-06T04:13:35.024Z,1014.74
2018-08-06T04:14:35.081Z,1014.78
2018-08-06T04:15:35.141Z,1014.76
2018-08-06T04:16:35.205Z,1014.78
2018-08-06T04:17:35.269Z,1014.78
2018-08-06T04:18:35.502Z,1014.77
2018-08-06T04:19:35.452Z,1014.76
2018-08-06T04:20:35.469Z,1014.75
2018-08-06T04:21:35.533Z,1014.75
2018-08-06T04:22:35.597Z,1014.79
2018-08-06T04:23:35.669Z,1014.79
2018-08-06T04:24:35.733Z,1014.81
2018-08-06T04:25:35.793Z,1014.83
2018-08-06T04:26:35.862Z,1014.81
2018-08-06T04:27:35.921Z,1014.83
2018-08-06T04:28:35.993Z,1014.84
2018-08-06T04:29:36.063Z,1014.82
2018-08-06T04:30:36.126Z,1014.82
2018-08-06T04:31:36.185Z,1014.81
2018-08-06T04:32:36.254Z,1014.79
2018-08-06T04:33:36.314Z,1014.80
2018-08-06T04:34:36.498Z,1014.78
2018-08-06T04:35:36.446Z,1014.81
2018-08-06T04:36:36.510Z,1014.81
2018-08-06T04:37:36.609Z,1014.83
2018-08-06T04:38:36.729Z,1014.82
2018-08-06T04:39:36.716Z,1014.80
2018-08-06T04:40:36.782Z,1014.82
2018-08-06T04:41:36.846Z,1014.83
2018-08-06T04:42:36.902Z,1014.83
2018-08-06T04:43:36.966Z,1014.85
2018-08-06T04:44:37.044Z,1014.83
2018-08-06T04:45:37.106Z,1014.86
2018-08-06T04:46:37.166Z,1014.87
2018-08-06T04:47:37.230Z,1014.88
2018-08-06T04:48:37.296Z,1014.89
2018-08-06T04:49:37.366Z,1014.86
2018-08-06T04:50:37.442Z,1014.83
2018-08-06T04:51:37.490Z,1014.82
2018-08-06T04:52:37.555Z,1014.81
2018-08-06T04:53:37.622Z,1014.80
2018-08-06T04:54:37.695Z,1014.77
2018-08-06T04:55:37.758Z,1014.80
2018-08-06T04:56:37.818Z,1014.80
2018-08-06T04:57:37.890Z,1014.78
2018-08-06T04:58:37.951Z,1014.78
2018-08-06T04:59:38.079Z,1014.80
2018-08-06T05:00:38.089Z,1014.78
2018-08-06T05:01:38.143Z,1014.76
2018-08-06T05:02:38.267Z,1014.79
2018-08-06T05:03:38.274Z,1014.78
2018-08-06T05:04:38.350Z,1014.76
2018-08-06T05:05:38.410Z,1014.74
2018-08-06T05:06:38.470Z,1014.73
2018-08-06T05:07:38.551Z,1014.72
2018-08-06T05:08:38.602Z,1014.74
2018-08-06T05:09:38.674Z,1014.76
2018-08-06T05:10:38.769Z,1014.77
2018-08-06T05:11:38.799Z,1014.78
2018-08-06T05:12:38.863Z,1014.78
2018-08-06T05:13:38.982Z,1014.75
2018-08-06T05:14:39.003Z,1014.76
2018-08-06T05:15:39.067Z,1014.75
2018-08-06T05:16:39.123Z,1014.78
2018-08-06T05:17:39.191Z,1014.80
2018-08-06T05:18:39.259Z,1014.80
2018-08-06T05:19:39.346Z,1014.81
2018-08-06T05:20:39.387Z,1014.85
2018-08-06T05:21:39.451Z,1014.86
2018-08-06T05:22:39.519Z,1014.84
2018-08-06T05:23:39.595Z,1014.82
2018-08-06T05:24:39.659Z,1014.79
2018-08-06T05:25:39.719Z,1014.79
2018-08-06T05:26:39.780Z,1014.80
2018-08-06T05:27:39.843Z,1014.79
2018-08-06T05:28:39.911Z,1014.77
2018-08-06T05:29:39.983Z,1014.72
2018-08-06T05:30:40.055Z,1014.69
2018-08-06T05:31:40.111Z,1014.68
2018-08-06T05:32:40.171Z,1014.67
2018-08-06T05:33:40.243Z,1014.70
2018-08-06T05:34:40.305Z,1014.66
2018-08-06T05:35:40.387Z,1014.68
2018-08-06T05:36:40.438Z,1014.64
2018-08-06T05:37:40.503Z,1014.65
2018-08-06T05:38:40.563Z,1014.66
2018-08-06T05:39:40.631Z,1014.72
2018-08-06T05:40:40.703Z,1014.72
2018-08-06T05:41:40.768Z,1014.70
2018-08-06T05:42:40.828Z,1014.65
2018-08-06T05:43:40.892Z,1014.67
2018-08-06T05:44:40.960Z,1014.69
2018-08-06T05:45:41.036Z,1014.64
2018-08-06T05:46:41.096Z,1014.63
2018-08-06T05:47:41.171Z,1014.62
2018-08-06T05:48:41.220Z,1014.63
2018-08-06T05:49:41.288Z,1014.63
2018-08-06T05:50:41.360Z,1014.67
2018-08-06T05:51:41.437Z,1014.65
2018-08-06T05:52:41.484Z,1014.64
2018-08-06T05:53:41.548Z,1014.68
2018-08-06T05:54:41.628Z,1014.70
2018-08-06T05:55:41.689Z,1014.75
2018-08-06T05:56:41.752Z,1014.72
2018-08-06T05:57:41.812Z,1014.71
2018-08-06T05:58:41.876Z,1014.72
2018-08-06T05:59:41.945Z,1014.73
2018-08-06T06:00:42.020Z,1014.75
2018-08-06T06:01:42.081Z,1014.74
2018-08-06T06:02:42.146Z,1014.77
2018-08-06T06:03:42.205Z,1014.81
2018-08-06T06:04:42.272Z,1014.79
2018-08-06T06:05:42.497Z,1014.78
2018-08-06T06:06:42.408Z,1014.80
2018-08-06T06:07:42.478Z,1014.78
2018-08-06T06:08:42.537Z,1014.80
2018-08-06T06:09:42.600Z,1014.78
2018-08-06T06:10:42.681Z,1014.75
2018-08-06T06:11:42.737Z,1014.79
2018-08-06T06:12:42.797Z,1014.79
2018-08-06T06:13:42.865Z,1014.82
2018-08-06T06:14:42.933Z,1014.83
2018-08-06T06:15:43.002Z,1014.84
2018-08-06T06:16:43.069Z,1014.84
2018-08-06T06:17:43.129Z,1014.83
2018-08-06T06:18:43.193Z,1014.82
2018-08-06T06:19:43.264Z,1014.83
2018-08-06T06:20:43.437Z,1014.84
2018-08-06T06:21:43.393Z,1014.81
2018-08-06T06:22:43.461Z,1014.82
2018-08-06T06:23:43.522Z,1014.86
2018-08-06T06:24:43.589Z,1014.88
2018-08-06T06:25:43.693Z,1014.87
2018-08-06T06:26:43.729Z,1014.85
2018-08-06T06:27:43.797Z,1014.85
2018-08-06T06:28:43.953Z,1014.83
2018-08-06T06:29:43.918Z,1014.84
2018-08-06T06:30:43.994Z,1014.83
2018-08-06T06:31:44.066Z,1014.85
2018-08-06T06:32:44.118Z,1014.85
2018-08-06T06:33:44.187Z,1014.83
2018-08-06T06:34:44.360Z,1014.79
2018-08-06T06:35:44.314Z,1014.78
2018-08-06T06:36:44.414Z,1014.76
2018-08-06T06:37:44.450Z,1014.77
2018-08-06T06:38:44.514Z,1014.78
2018-08-06T06:39:44.582Z,1014.75
2018-08-06T06:40:44.646Z,1014.71
2018-08-06T06:41:44.744Z,1014.76
2018-08-06T06:42:44.787Z,1014.72
2018-08-06T06:43:44.846Z,1014.73
2018-08-06T06:44:44.910Z,1014.72
2018-08-06T06:45:44.978Z,1014.73
2018-08-06T06:46:45.055Z,1015.18
2018-08-06T06:47:45.118Z,1016.45
2018-08-06T06:48:45.199Z,1017.72
2018-08-06T06:49:45.246Z,1018.19
2018-08-06T06:50:45.314Z,1018.15
2018-08-06T06:51:45.419Z,1018.11
2018-08-06T06:52:45.450Z,1018.03
2018-08-06T06:53:45.522Z,1017.91
2018-08-06T06:54:45.590Z,1017.76
2018-08-06T06:55:45.662Z,1017.75
2018-08-06T06:56:45.739Z,1017.71
2018-08-06T06:57:45.819Z,1017.53
2018-08-06T06:58:45.879Z,1017.49
2018-08-06T06:59:45.955Z,1017.49
2018-08-06T07:00:46.027Z,1017.43
2018-08-06T07:01:46.115Z,1017.32
2018-08-06T07:02:46.175Z,1017.28
2018-08-06T07:03:46.247Z,1017.29
2018-08-06T07:04:46.327Z,1017.22
2018-08-06T07:05:46.399Z,1017.18
2018-08-06T07:06:46.484Z,1017.13
2018-08-06T07:07:46.567Z,1017.11
2018-08-06T07:08:46.631Z,1017.07
2018-08-06T07:09:46.708Z,1017.10
2018-08-06T07:10:46.783Z,1017.11
2018-08-06T07:11:46.870Z,1017.10
2018-08-06T07:12:46.947Z,1017.09
2018-08-06T07:13:47.039Z,1017.08
2018-08-06T07:14:47.095Z,1017.11
2018-08-06T07:15:47.175Z,1017.03
2018-08-06T07:16:47.411Z,1016.98
2018-08-06T07:17:47.333Z,1017.01
2018-08-06T07:18:47.412Z,1016.97
2018-08-06T07:19:47.491Z,1016.98
2018-08-06T07:20:47.568Z,1016.98
2018-08-06T07:21:47.656Z,1016.98
2018-08-06T07:22:47.736Z,1016.97
2018-08-06T07:23:47.807Z,1016.95
2018-08-06T07:24:47.888Z,1016.96
2018-08-06T07:25:47.967Z,1016.94
2018-08-06T07:26:48.056Z,1016.91
2018-08-06T07:27:48.136Z,1016.91
2018-08-06T07:28:48.208Z,1016.96
2018-08-06T07:29:48.288Z,1016.90
2018-08-06T07:30:48.376Z,1016.88
2018-08-06T07:31:48.604Z,1016.94
2018-08-06T07:32:48.536Z,1016.97
2018-08-06T07:33:48.737Z,1016.91
2018-08-06T07:34:48.696Z,1016.93
2018-08-06T07:35:48.780Z,1016.95
2018-08-06T07:36:48.864Z,1016.94
2018-08-06T07:37:48.953Z,1016.92
2018-08-06T07:38:49.020Z,1016.92
2018-08-06T07:39:49.100Z,1016.87
2018-08-06T07:40:49.184Z,1016.85
2018-08-06T07:41:49.379Z,1016.81
2018-08-06T07:42:49.348Z,1016.65
2018-08-06T07:43:49.428Z,1016.60
2018-08-06T07:44:49.508Z,1016.45
2018-08-06T07:45:49.592Z,1016.38
2018-08-06T07:46:49.682Z,1016.28
2018-08-06T07:47:49.765Z,1016.16
2018-08-06T07:48:49.836Z,1016.08
2018-08-06T07:49:49.944Z,1016.02
2018-08-06T07:50:50.005Z,1016.03
2018-08-06T07:51:50.113Z,1015.93
2018-08-06T07:52:50.168Z,1015.86
2018-08-06T07:53:50.248Z,1015.87
2018-08-06T07:54:50.332Z,1015.80
2018-08-06T07:55:50.436Z,1015.79
2018-08-06T07:56:50.504Z,1015.76
2018-08-06T07:57:50.584Z,1015.75
2018-08-06T07:58:50.660Z,1015.62
2018-08-06T07:59:50.805Z,1015.60
2018-08-06T08:00:50.825Z,1015.58
2018-08-06T08:01:50.928Z,1015.51
2018-08-06T08:02:50.998Z,1015.54
2018-08-06T08:03:51.072Z,1015.55
2018-08-06T08:04:51.156Z,1015.57
2018-08-06T08:05:51.241Z,1015.57
2018-08-06T08:06:51.429Z,1015.50
2018-08-06T08:07:51.405Z,1015.56
2018-08-06T08:08:51.488Z,1015.48
2018-08-06T08:09:51.584Z,1015.50
2018-08-06T08:10:51.649Z,1015.54
2018-08-06T08:11:51.766Z,1015.47
2018-08-06T08:12:51.821Z,1015.47
2018-08-06T08:13:51.897Z,1015.42
2018-08-06T08:14:51.981Z,1015.44
2018-08-06T08:15:52.069Z,1015.44
2018-08-06T08:16:52.158Z,1015.42
2018-08-06T08:17:52.225Z,1015.41
2018-08-06T08:18:52.309Z,1015.38
2018-08-06T08:19:52.397Z,1015.35
2018-08-06T08:20:52.469Z,1015.39
2018-08-06T08:21:52.573Z,1015.37
2018-08-06T08:22:52.641Z,1015.31
2018-08-06T08:23:52.717Z,1015.30
2018-08-06T08:24:52.797Z,1015.24
2018-08-06T08:25:52.885Z,1015.12
2018-08-06T08:26:52.971Z,1015.10
2018-08-06T08:27:53.050Z,1015.05
2018-08-06T08:28:53.126Z,1014.99
2018-08-06T08:29:53.209Z,1014.99
2018-08-06T08:30:53.289Z,1015.04
2018-08-06T08:31:53.374Z,1015.03
2018-08-06T08:32:53.609Z,1014.98
2018-08-06T08:33:53.586Z,1015.04
2018-08-06T08:34:53.618Z,1015.01
2018-08-06T08:35:53.698Z,1015.05
2018-08-06T08:36:53.781Z,1015.03
2018-08-06T08:37:53.869Z,1015.06
2018-08-06T08:38:53.949Z,1014.99
2018-08-06T08:39:54.026Z,1014.96
2018-08-06T08:40:54.109Z,1014.94
2018-08-06T08:41:54.197Z,1014.88
2018-08-06T08:42:54.382Z,1014.93
2018-08-06T08:43:54.350Z,1014.92
2018-08-06T08:44:54.430Z,1014.94
2018-08-06T08:45:54.514Z,1014.92
2018-08-06T08:46:54.599Z,1014.86
2018-08-06T08:47:54.682Z,1014.86
2018-08-06T08:48:54.762Z,1014.86
2018-08-06T08:49:54.840Z,1014.86
2018-08-06T08:50:54.919Z,1014.60
2018-08-06T08:51:54.999Z,1014.21
2018-08-06T08:52:55.163Z,1014.12
2018-08-06T08:53:55.162Z,1014.10
2018-08-06T08:54:55.243Z,1014.43
2018-08-06T08:55:55.323Z,1014.54
2018-08-06T08:56:55.403Z,1014.34
2018-08-06T08:57:55.487Z,1014.56
2018-08-06T08:58:55.662Z,1014.56
2018-08-06T08:59:55.639Z,1014.85
2018-08-06T09:00:55.727Z,1014.82
2018-08-06T09:01:55.805Z,1014.76
2018-08-06T09:02:55.887Z,1014.75
2018-08-06T09:03:55.963Z,1014.67
2018-08-06T09:04:56.040Z,1014.50
2018-08-06T09:05:56.120Z,1014.75
2018-08-06T09:06:56.196Z,1014.74
2018-08-06T09:07:56.292Z,1014.77
2018-08-06T09:08:56.356Z,1014.74
2018-08-06T09:09:56.440Z,1014.71
2018-08-06T09:10:56.516Z,1014.47
2018-08-06T09:11:56.596Z,1014.28
2018-08-06T09:12:56.684Z,1014.22
2018-08-06T09:13:56.772Z,1014.24
2018-08-06T09:14:56.840Z,1014.26
2018-08-06T09:15:56.912Z,1014.25
2018-08-06T09:16:56.992Z,1014.25
2018-08-06T09:17:57.418Z,1014.23
2018-08-06T09:18:57.152Z,1014.17
2018-08-06T09:19:57.236Z,1014.19
2018-08-06T09:20:57.324Z,1014.22
2018-08-06T09:21:57.388Z,1014.21
2018-08-06T09:22:57.480Z,1014.14
2018-08-06T09:23:57.556Z,1014.13
2018-08-06T09:24:57.628Z,1014.09
2018-08-06T09:25:57.708Z,1014.07
2018-08-06T09:26:57.788Z,1013.96
2018-08-06T09:27:57.872Z,1013.95
2018-08-06T09:28:57.952Z,1013.86
2018-08-06T09:29:58.025Z,1013.84
2018-08-06T09:30:58.109Z,1013.84
2018-08-06T09:31:58.184Z,1013.92
2018-08-06T09:32:58.276Z,1013.93
2018-08-06T09:33:58.349Z,1013.93
2018-08-06T09:34:58.420Z,1013.87
2018-08-06T09:35:58.496Z,1013.94
2018-08-06T09:36:58.576Z,1013.91
2018-08-06T09:37:58.667Z,1013.94
2018-08-06T09:38:58.736Z,1013.90
2018-08-06T09:39:58.812Z,1013.92
2018-08-06T09:40:58.888Z,1013.85
2018-08-06T09:41:58.968Z,1013.83
2018-08-06T09:42:59.048Z,1013.79
2018-08-06T09:43:59.124Z,1013.78
2018-08-06T09:44:59.205Z,1013.74
2018-08-06T09:45:59.277Z,1013.73
2018-08-06T09:46:59.356Z,1013.71
2018-08-06T09:47:59.436Z,1013.65
2018-08-06T09:48:59.516Z,1013.64
2018-08-06T09:49:59.588Z,1013.63
2018-08-06T09:50:59.665Z,1013.57
2018-08-06T09:51:59.740Z,1013.52
2018-08-06T09:52:59.830Z,1013.43
2018-08-06T09:53:59.904Z,1013.27
2018-08-06T09:54:59.977Z,1013.27
2018-08-06T09:56:00.053Z,1013.36
2018-08-06T09:57:00.152Z,1013.34
2018-08-06T09:58:00.575Z,1013.42
2018-08-06T09:59:00.285Z,1013.41
2018-08-06T10:00:00.361Z,1013.46
2018-08-06T10:01:00.437Z,1013.39
2018-08-06T10:02:00.517Z,1013.36
2018-08-06T10:03:00.621Z,1013.38
2018-08-06T10:04:00.677Z,1013.34
2018-08-06T10:05:00.746Z,1013.31
2018-08-06T10:06:00.978Z,1013.32
2018-08-06T10:07:00.902Z,1013.33
2018-08-06T10:08:00.985Z,1013.24
2018-08-06T10:09:01.069Z,1013.22
2018-08-06T10:10:01.133Z,1013.29
2018-08-06T10:11:01.209Z,1013.09
2018-08-06T10:12:01.329Z,1013.06
2018-08-06T10:13:01.367Z,1013.05
2018-08-06T10:14:01.465Z,1013.13
2018-08-06T10:15:01.522Z,1013.13
2018-08-06T10:16:01.593Z,1013.13
2018-08-06T10:17:01.670Z,1013.18
2018-08-06T10:18:01.745Z,1013.08
2018-08-06T10:19:01.928Z,1013.04
2018-08-06T10:20:01.909Z,1013.05
2018-08-06T10:21:01.976Z,1013.07
2018-08-06T10:22:02.056Z,1013.05
2018-08-06T10:23:02.126Z,1013.10
2018-08-06T10:24:02.230Z,1013.05
2018-08-06T10:25:02.278Z,1013.11
2018-08-06T10:26:02.355Z,1013.06
2018-08-06T10:27:02.429Z,1013.10
2018-08-06T10:28:02.508Z,1013.04
2018-08-06T10:29:02.586Z,1013.02
2018-08-06T10:30:02.669Z,1013.02
2018-08-06T10:31:02.730Z,1012.98
2018-08-06T10:32:02.806Z,1012.95
2018-08-06T10:33:02.886Z,1012.94
2018-08-06T10:34:02.966Z,1012.94
2018-08-06T10:35:03.043Z,1012.92
2018-08-06T10:36:03.111Z,1012.85
2018-08-06T10:37:03.186Z,1012.89
2018-08-06T10:38:03.264Z,1012.89
2018-08-06T10:39:03.342Z,1012.84
2018-08-06T10:40:03.458Z,1012.87
2018-08-06T10:41:03.487Z,1012.80
2018-08-06T10:42:03.568Z,1012.81
2018-08-06T10:43:03.639Z,1012.74
2018-08-06T10:44:03.715Z,1012.74
2018-08-06T10:45:03.795Z,1012.68
2018-08-06T10:46:03.871Z,1012.63
2018-08-06T10:47:03.939Z,1012.62
2018-08-06T10:48:04.023Z,1012.60
2018-08-06T10:49:04.091Z,1012.58
2018-08-06T10:50:04.167Z,1012.51
2018-08-06T10:51:04.395Z,1012.52
2018-08-06T10:52:04.323Z,1012.53
2018-08-06T10:53:04.391Z,1012.55
2018-08-06T10:54:04.467Z,1012.56
2018-08-06T10:55:04.543Z,1012.51
2018-08-06T10:56:04.623Z,1012.52
2018-08-06T10:57:04.703Z,1012.52
2018-08-06T10:58:04.775Z,1012.54
2018-08-06T10:59:04.847Z,1012.51
2018-08-06T11:00:04.920Z,1012.48
2018-08-06T11:01:05.004Z,1012.46
2018-08-06T11:02:05.076Z,1012.49
2018-08-06T11:03:05.148Z,1012.52
2018-08-06T11:04:05.220Z,1012.48
2018-08-06T11:05:05.295Z,1012.41
2018-08-06T11:06:05.380Z,1012.40
2018-08-06T11:07:05.452Z,1012.39
2018-08-06T11:08:05.523Z,1012.38
2018-08-06T11:09:05.599Z,1012.33
2018-08-06T11:10:05.672Z,1012.27
2018-08-06T11:11:05.752Z,1012.30
2018-08-06T11:12:05.828Z,1012.34
2018-08-06T11:13:05.895Z,1012.32
2018-08-06T11:14:06.028Z,1012.28
2018-08-06T11:15:06.059Z,1012.33
2018-08-06T11:16:06.152Z,1012.30
2018-08-06T11:17:06.196Z,1012.26
2018-08-06T11:18:06.274Z,1012.22
2018-08-06T11:19:06.348Z,1012.22
2018-08-06T11:20:06.424Z,1012.22
2018-08-06T11:21:06.504Z,1012.19
2018-08-06T11:22:06.573Z,1012.17
2018-08-06T11:23:06.652Z,1012.11
2018-08-06T11:24:06.724Z,1012.14
2018-08-06T11:25:06.796Z,1012.12
2018-08-06T11:26:06.879Z,1012.13
2018-08-06T11:27:06.953Z,1012.08
2018-08-06T11:28:07.020Z,1012.12
2018-08-06T11:29:07.097Z,1012.08
2018-08-06T11:30:07.173Z,1012.08
2018-08-06T11:31:07.420Z,1012.10
2018-08-06T11:32:07.328Z,1012.03
2018-08-06T11:33:07.392Z,1012.01
2018-08-06T11:34:07.473Z,1011.99
2018-08-06T11:35:07.549Z,1012.00
2018-08-06T11:36:07.629Z,1012.02
2018-08-06T11:37:07.709Z,1012.01
2018-08-06T11:38:07.769Z,1012.03
2018-08-06T11:39:07.849Z,1011.99
2018-08-06T11:40:07.921Z,1011.97
2018-08-06T11:41:08.005Z,1012.00
2018-08-06T11:42:08.081Z,1011.97
2018-08-06T11:43:08.149Z,1011.92
2018-08-06T11:44:08.233Z,1011.92
2018-08-06T11:45:08.300Z,1011.94
2018-08-06T11:46:08.633Z,1011.91
2018-08-06T11:47:08.449Z,1011.88
2018-08-06T11:48:08.521Z,1011.90
2018-08-06T11:49:08.597Z,1011.91
2018-08-06T11:50:08.685Z,1011.82
2018-08-06T11:51:08.765Z,1011.77
2018-08-06T11:52:08.830Z,1011.77
2018-08-06T11:53:08.901Z,1011.77
2018-08-06T11:54:08.973Z,1011.74
2018-08-06T11:55:09.052Z,1011.78
2018-08-06T11:56:09.241Z,1011.75
2018-08-06T11:57:09.202Z,1011.76
2018-08-06T11:58:09.282Z,1011.72
2018-08-06T11:59:09.350Z,1011.71
2018-08-06T12:00:09.426Z,1011.72
2018-08-06T12:01:09.509Z,1011.70
2018-08-06T12:02:09.582Z,1011.68
2018-08-06T12:03:09.654Z,1011.64
2018-08-06T12:04:09.726Z,1011.67
2018-08-06T12:05:09.802Z,1011.67
2018-08-06T12:06:09.886Z,1011.67